sensor_id;sensor_type;location;lat;lon;timestamp;P1;durP1;ratioP1;P2;durP2;ratioP2
64242;SDS011;50573;51.512;5.386;2023-01-24T00:07:48;35.57;;;28.17;;
64242;SDS011;50573;51.512;5.386;2023-01-24T00:17:52;29.97;;;25.43;;
64242;SDS011;50573;51.512;5.386;2023-01-24T00:27:55;31.80;;;25.93;;
64242;SDS011;50573;51.512;5.386;2023-01-24T00:38:00;32.25;;;26.98;;
64242;SDS011;50573;51.512;5.386;2023-01-24T00:48:04;32.93;;;26.53;;
64242;SDS011;50573;51.512;5.386;2023-01-24T00:58:09;32.77;;;26.30;;
64242;SDS011;50573;51.512;5.386;2023-01-24T01:08:13;30.98;;;26.10;;
64242;SDS011;50573;51.512;5.386;2023-01-24T01:18:18;29.85;;;24.92;;
64242;SDS011;50573;51.512;5.386;2023-01-24T01:28:21;26.73;;;22.27;;
64242;SDS011;50573;51.512;5.386;2023-01-24T01:38:25;28.02;;;22.88;;
64242;SDS011;50573;51.512;5.386;2023-01-24T01:48:32;28.83;;;23.63;;
64242;SDS011;50573;51.512;5.386;2023-01-24T01:58:40;29.30;;;23.47;;
64242;SDS011;50573;51.512;5.386;2023-01-24T02:08:45;31.07;;;25.00;;
64242;SDS011;50573;51.512;5.386;2023-01-24T02:18:50;31.77;;;25.50;;
64242;SDS011;50573;51.512;5.386;2023-01-24T02:29:01;33.10;;;25.97;;
64242;SDS011;50573;51.512;5.386;2023-01-24T02:39:08;33.60;;;26.77;;
64242;SDS011;50573;51.512;5.386;2023-01-24T02:49:17;35.50;;;27.70;;
64242;SDS011;50573;51.512;5.386;2023-01-24T02:59:20;37.22;;;28.65;;
64242;SDS011;50573;51.512;5.386;2023-01-24T03:09:25;37.00;;;28.53;;
64242;SDS011;50573;51.512;5.386;2023-01-24T03:19:37;34.70;;;27.42;;
64242;SDS011;50573;51.512;5.386;2023-01-24T03:29:59;36.60;;;28.57;;
64242;SDS011;50573;51.512;5.386;2023-01-24T03:40:20;36.08;;;28.73;;
64242;SDS011;50573;51.512;5.386;2023-01-24T03:50:26;35.58;;;28.50;;
64242;SDS011;50573;51.512;5.386;2023-01-24T04:00:49;36.30;;;29.33;;
64242;SDS011;50573;51.512;5.386;2023-01-24T04:11:28;36.55;;;28.92;;
64242;SDS011;50573;51.512;5.386;2023-01-24T04:21:38;38.20;;;28.47;;
64242;SDS011;50573;51.512;5.386;2023-01-24T04:31:43;35.97;;;28.13;;
64242;SDS011;50573;51.512;5.386;2023-01-24T04:41:56;33.90;;;27.60;;
64242;SDS011;50573;51.512;5.386;2023-01-24T04:52:01;35.75;;;28.13;;
64242;SDS011;50573;51.512;5.386;2023-01-24T05:02:16;36.23;;;29.27;;
64242;SDS011;50573;51.512;5.386;2023-01-24T05:12:22;34.92;;;28.60;;
64242;SDS011;50573;51.512;5.386;2023-01-24T05:22:25;36.60;;;29.40;;
64242;SDS011;50573;51.512;5.386;2023-01-24T05:32:30;33.37;;;27.23;;
64242;SDS011;50573;51.512;5.386;2023-01-24T05:42:33;32.45;;;27.30;;
64242;SDS011;50573;51.512;5.386;2023-01-24T05:52:42;33.43;;;27.23;;
64242;SDS011;50573;51.512;5.386;2023-01-24T06:02:45;32.72;;;26.85;;
64242;SDS011;50573;51.512;5.386;2023-01-24T06:12:50;32.67;;;25.60;;
64242;SDS011;50573;51.512;5.386;2023-01-24T06:22:54;31.80;;;26.42;;
64242;SDS011;50573;51.512;5.386;2023-01-24T06:33:14;34.87;;;28.43;;
64242;SDS011;50573;51.512;5.386;2023-01-24T06:43:25;34.37;;;27.60;;
64242;SDS011;50573;51.512;5.386;2023-01-24T06:53:31;39.03;;;29.37;;
64242;SDS011;50573;51.512;5.386;2023-01-24T07:03:34;37.45;;;29.23;;
64242;SDS011;50573;51.512;5.386;2023-01-24T07:13:39;36.92;;;29.25;;
64242;SDS011;50573;51.512;5.386;2023-01-24T07:23:43;36.47;;;28.80;;
64242;SDS011;50573;51.512;5.386;2023-01-24T07:33:48;36.17;;;29.05;;
64242;SDS011;50573;51.512;5.386;2023-01-24T07:43:51;37.67;;;29.80;;
64242;SDS011;50573;51.512;5.386;2023-01-24T07:53:56;35.40;;;27.67;;
64242;SDS011;50573;51.512;5.386;2023-01-24T08:03:59;35.53;;;27.17;;
64242;SDS011;50573;51.512;5.386;2023-01-24T08:14:03;38.00;;;29.40;;
64242;SDS011;50573;51.512;5.386;2023-01-24T08:24:07;38.80;;;30.33;;
64242;SDS011;50573;51.512;5.386;2023-01-24T08:34:11;37.10;;;29.23;;
64242;SDS011;50573;51.512;5.386;2023-01-24T08:44:15;35.47;;;28.00;;
64242;SDS011;50573;51.512;5.386;2023-01-24T08:54:21;35.25;;;27.98;;
64242;SDS011;50573;51.512;5.386;2023-01-24T09:04:24;36.07;;;28.37;;
64242;SDS011;50573;51.512;5.386;2023-01-24T09:14:30;34.80;;;27.00;;
64242;SDS011;50573;51.512;5.386;2023-01-24T09:24:33;40.53;;;29.10;;
64242;SDS011;50573;51.512;5.386;2023-01-24T09:34:37;38.60;;;28.73;;
64242;SDS011;50573;51.512;5.386;2023-01-24T09:44:43;38.50;;;28.77;;
64242;SDS011;50573;51.512;5.386;2023-01-24T09:54:52;36.78;;;27.48;;
64242;SDS011;50573;51.512;5.386;2023-01-24T10:05:00;35.40;;;26.50;;
64242;SDS011;50573;51.512;5.386;2023-01-24T10:15:12;34.83;;;25.83;;
64242;SDS011;50573;51.512;5.386;2023-01-24T10:25:25;31.67;;;24.47;;
64242;SDS011;50573;51.512;5.386;2023-01-24T10:35:32;28.75;;;22.92;;
64242;SDS011;50573;51.512;5.386;2023-01-24T10:45:44;27.50;;;22.00;;
64242;SDS011;50573;51.512;5.386;2023-01-24T10:55:58;29.23;;;23.05;;
64242;SDS011;50573;51.512;5.386;2023-01-24T11:06:03;25.17;;;20.20;;
64242;SDS011;50573;51.512;5.386;2023-01-24T11:16:22;26.17;;;21.15;;
64242;SDS011;50573;51.512;5.386;2023-01-24T11:26:29;26.17;;;20.53;;
64242;SDS011;50573;51.512;5.386;2023-01-24T11:36:40;26.40;;;20.93;;
64242;SDS011;50573;51.512;5.386;2023-01-24T11:46:54;24.60;;;19.73;;
64242;SDS011;50573;51.512;5.386;2023-01-24T11:57:05;25.15;;;20.77;;
64242;SDS011;50573;51.512;5.386;2023-01-24T12:07:18;27.45;;;20.92;;
64242;SDS011;50573;51.512;5.386;2023-01-24T12:28:08;25.70;;;20.13;;
64242;SDS011;50573;51.512;5.386;2023-01-24T12:38:20;26.97;;;20.70;;
64242;SDS011;50573;51.512;5.386;2023-01-24T12:48:37;26.03;;;20.07;;
64242;SDS011;50573;51.512;5.386;2023-01-24T12:58:47;26.17;;;20.13;;
64242;SDS011;50573;51.512;5.386;2023-01-24T13:08:58;25.10;;;19.70;;
64242;SDS011;50573;51.512;5.386;2023-01-24T13:19:13;25.63;;;20.00;;
64242;SDS011;50573;51.512;5.386;2023-01-24T13:29:25;25.23;;;19.30;;
64242;SDS011;50573;51.512;5.386;2023-01-24T13:39:47;25.63;;;20.10;;
64242;SDS011;50573;51.512;5.386;2023-01-24T13:50:11;24.80;;;18.77;;
64242;SDS011;50573;51.512;5.386;2023-01-24T14:00:20;25.70;;;19.75;;
64242;SDS011;50573;51.512;5.386;2023-01-24T14:10:31;24.35;;;20.23;;
64242;SDS011;50573;51.512;5.386;2023-01-24T14:20:38;26.50;;;20.03;;
64242;SDS011;50573;51.512;5.386;2023-01-24T14:30:47;26.30;;;20.73;;
64242;SDS011;50573;51.512;5.386;2023-01-24T14:40:57;26.55;;;20.55;;
64242;SDS011;50573;51.512;5.386;2023-01-24T14:51:03;27.07;;;19.90;;
64242;SDS011;50573;51.512;5.386;2023-01-24T15:01:25;26.42;;;20.50;;
64242;SDS011;50573;51.512;5.386;2023-01-24T15:11:31;25.23;;;20.63;;
64242;SDS011;50573;51.512;5.386;2023-01-24T15:21:43;25.40;;;19.85;;
64242;SDS011;50573;51.512;5.386;2023-01-24T15:31:49;25.60;;;20.23;;
64242;SDS011;50573;51.512;5.386;2023-01-24T15:41:59;25.13;;;20.03;;
64242;SDS011;50573;51.512;5.386;2023-01-24T15:52:20;25.73;;;20.40;;
64242;SDS011;50573;51.512;5.386;2023-01-24T16:02:25;26.37;;;21.47;;
64242;SDS011;50573;51.512;5.386;2023-01-24T16:12:29;29.10;;;22.27;;
64242;SDS011;50573;51.512;5.386;2023-01-24T16:22:36;30.40;;;23.40;;
64242;SDS011;50573;51.512;5.386;2023-01-24T16:32:40;32.55;;;23.60;;
64242;SDS011;50573;51.512;5.386;2023-01-24T16:42:45;28.15;;;21.63;;
64242;SDS011;50573;51.512;5.386;2023-01-24T16:52:49;28.53;;;22.20;;
64242;SDS011;50573;51.512;5.386;2023-01-24T17:02:53;30.45;;;23.60;;
64242;SDS011;50573;51.512;5.386;2023-01-24T17:12:57;29.27;;;22.83;;
64242;SDS011;50573;51.512;5.386;2023-01-24T17:23:02;33.20;;;23.85;;
64242;SDS011;50573;51.512;5.386;2023-01-24T17:33:05;31.03;;;23.87;;
64242;SDS011;50573;51.512;5.386;2023-01-24T17:43:09;30.33;;;24.03;;
64242;SDS011;50573;51.512;5.386;2023-01-24T17:53:13;35.17;;;27.02;;
64242;SDS011;50573;51.512;5.386;2023-01-24T18:03:18;34.57;;;27.27;;
64242;SDS011;50573;51.512;5.386;2023-01-24T18:13:23;32.58;;;27.10;;
64242;SDS011;50573;51.512;5.386;2023-01-24T18:23:28;35.38;;;29.20;;
64242;SDS011;50573;51.512;5.386;2023-01-24T18:33:31;37.38;;;32.13;;
64242;SDS011;50573;51.512;5.386;2023-01-24T18:43:38;37.90;;;33.70;;
64242;SDS011;50573;51.512;5.386;2023-01-24T18:53:41;42.37;;;36.10;;
64242;SDS011;50573;51.512;5.386;2023-01-24T19:03:46;47.97;;;40.00;;
64242;SDS011;50573;51.512;5.386;2023-01-24T19:13:49;45.20;;;40.07;;
64242;SDS011;50573;51.512;5.386;2023-01-24T19:23:55;43.13;;;38.50;;
64242;SDS011;50573;51.512;5.386;2023-01-24T19:33:58;41.87;;;36.20;;
64242;SDS011;50573;51.512;5.386;2023-01-24T19:44:03;44.57;;;38.90;;
64242;SDS011;50573;51.512;5.386;2023-01-24T19:54:22;52.07;;;43.20;;
64242;SDS011;50573;51.512;5.386;2023-01-24T20:04:26;47.43;;;40.27;;
64242;SDS011;50573;51.512;5.386;2023-01-24T20:14:38;49.42;;;43.35;;
64242;SDS011;50573;51.512;5.386;2023-01-24T20:24:43;53.10;;;46.97;;
64242;SDS011;50573;51.512;5.386;2023-01-24T20:34:46;73.50;;;55.30;;
64242;SDS011;50573;51.512;5.386;2023-01-24T20:44:50;64.43;;;54.70;;
64242;SDS011;50573;51.512;5.386;2023-01-24T20:54:54;75.60;;;61.83;;
64242;SDS011;50573;51.512;5.386;2023-01-24T21:04:58;97.32;;;77.28;;
64242;SDS011;50573;51.512;5.386;2023-01-24T21:15:02;108.00;;;81.83;;
64242;SDS011;50573;51.512;5.386;2023-01-24T21:25:08;101.22;;;78.93;;
64242;SDS011;50573;51.512;5.386;2023-01-24T21:35:13;105.83;;;81.23;;
64242;SDS011;50573;51.512;5.386;2023-01-24T21:45:17;93.40;;;74.33;;
64242;SDS011;50573;51.512;5.386;2023-01-24T21:55:20;92.32;;;72.18;;
